createdAt,value
2023-05-05T00:01:26.810Z,56.86
2023-05-05T00:03:53.476Z,56.93
2023-05-05T00:06:20.265Z,57.57
2023-05-05T00:08:47.141Z,57.84
2023-05-05T00:11:13.867Z,57.79
2023-05-05T00:13:43.067Z,57.05
2023-05-05T00:16:09.822Z,56.90
2023-05-05T00:18:36.496Z,57.54
2023-05-05T00:21:03.323Z,57.11
2023-05-05T00:23:30.091Z,57.36
2023-05-05T00:25:56.872Z,57.69
2023-05-05T00:28:23.878Z,58.25
2023-05-05T00:30:50.568Z,57.92
2023-05-05T00:33:17.285Z,58.93
2023-05-05T00:35:43.937Z,59.41
2023-05-05T00:38:10.937Z,58.82
2023-05-05T00:40:37.565Z,58.42
2023-05-05T00:43:04.571Z,59.04
2023-05-05T00:45:31.525Z,59.09
2023-05-05T00:48:00.034Z,58.88
2023-05-05T00:50:31.152Z,59.18
2023-05-05T00:53:03.045Z,59.58
2023-05-05T00:55:30.534Z,58.99
2023-05-05T00:57:58.637Z,59.11
2023-05-05T01:00:25.701Z,59.28
2023-05-05T01:02:52.555Z,59.32
2023-05-05T01:05:24.014Z,60.06
2023-05-05T01:08:16.912Z,59.56
2023-05-05T01:10:50.429Z,60.21
2023-05-05T01:13:47.594Z,60.12
2023-05-05T01:16:18.649Z,60.11
2023-05-05T01:19:01.165Z,59.95
2023-05-05T01:21:36.117Z,60.64
2023-05-05T01:24:30.784Z,60.88
2023-05-05T01:27:26.301Z,60.52
2023-05-05T01:29:58.999Z,61.12
2023-05-05T01:32:28.345Z,60.52
2023-05-05T01:35:13.262Z,61.28
2023-05-05T01:37:45.794Z,60.90
2023-05-05T01:40:15.257Z,60.34
2023-05-05T01:42:43.417Z,60.83
2023-05-05T01:45:12.853Z,60.55
2023-05-05T01:47:41.185Z,60.46
2023-05-05T01:50:09.566Z,60.29
2023-05-05T01:52:38.218Z,60.58
2023-05-05T01:55:07.881Z,60.88
2023-05-05T01:57:35.856Z,61.65
2023-05-05T02:00:03.520Z,61.92
2023-05-05T02:02:31.211Z,60.95
2023-05-05T02:05:00.621Z,61.05
2023-05-05T02:07:28.218Z,61.21
2023-05-05T02:09:55.675Z,61.37
2023-05-05T02:12:23.146Z,61.48
2023-05-05T02:14:51.262Z,62.16
2023-05-05T02:17:21.790Z,62.19
2023-05-05T02:19:52.205Z,61.79
2023-05-05T02:22:19.075Z,62.22
2023-05-05T02:24:46.136Z,62.49
2023-05-05T02:27:17.842Z,62.09
2023-05-05T02:29:50.586Z,62.08
2023-05-05T02:32:32.099Z,62.79
2023-05-05T02:35:05.005Z,62.65
2023-05-05T02:37:33.680Z,62.55
2023-05-05T02:40:02.456Z,63.77
2023-05-05T02:42:35.381Z,63.25
2023-05-05T02:45:07.981Z,64.19
2023-05-05T02:47:35.530Z,64.63
2023-05-05T02:50:06.768Z,64.50
2023-05-05T02:52:34.661Z,64.27
2023-05-05T02:55:03.079Z,64.27
2023-05-05T02:57:51.362Z,64.05
2023-05-05T03:00:33.135Z,65.12
2023-05-05T03:03:05.745Z,64.75
2023-05-05T03:05:47.420Z,64.70
2023-05-05T03:08:18.514Z,64.65
2023-05-05T03:10:59.068Z,64.30
2023-05-05T03:13:28.345Z,63.58
2023-05-05T03:15:57.982Z,64.15
2023-05-05T03:18:26.558Z,64.54
2023-05-05T03:20:54.019Z,64.47
2023-05-05T03:23:21.024Z,64.64
2023-05-05T03:25:50.699Z,64.27
2023-05-05T03:28:18.362Z,64.22
2023-05-05T03:30:45.322Z,64.11
2023-05-05T03:33:12.020Z,64.85
2023-05-05T03:35:38.790Z,64.81
2023-05-05T03:38:05.399Z,64.94
2023-05-05T03:40:43.132Z,64.85
2023-05-05T03:43:10.804Z,64.33
2023-05-05T03:45:37.465Z,65.68
2023-05-05T03:48:04.187Z,64.53
2023-05-05T03:50:31.017Z,64.11
2023-05-05T03:52:57.669Z,63.23
2023-05-05T03:55:24.378Z,64.00
2023-05-05T03:57:51.062Z,63.08
2023-05-05T04:00:18.058Z,62.64
2023-05-05T04:02:44.859Z,62.37
2023-05-05T04:05:11.562Z,62.76
2023-05-05T04:07:38.314Z,62.07
2023-05-05T04:10:05.901Z,62.43
2023-05-05T04:12:32.760Z,61.83
2023-05-05T04:14:59.473Z,61.12
2023-05-05T04:17:26.376Z,60.46
2023-05-05T04:19:53.208Z,60.73
2023-05-05T04:22:19.911Z,62.03
2023-05-05T04:24:46.669Z,61.50
2023-05-05T04:27:13.253Z,60.92
2023-05-05T04:29:39.991Z,61.73
2023-05-05T04:32:06.657Z,61.10
2023-05-05T04:34:33.350Z,60.65
2023-05-05T04:37:00.017Z,60.79
2023-05-05T04:39:26.752Z,60.50
2023-05-05T04:41:53.494Z,59.79
2023-05-05T04:44:20.254Z,60.81
2023-05-05T04:46:47.019Z,60.13
2023-05-05T04:49:13.820Z,60.03
2023-05-05T04:51:43.640Z,59.37
2023-05-05T04:54:10.312Z,58.79
2023-05-05T04:56:36.979Z,59.50
2023-05-05T04:59:03.715Z,58.44
2023-05-05T05:01:30.484Z,57.25
2023-05-05T05:03:57.427Z,57.44
2023-05-05T05:06:24.285Z,58.17
2023-05-05T05:08:50.988Z,57.51
2023-05-05T05:11:20.544Z,55.47
2023-05-05T05:13:47.173Z,57.04
2023-05-05T05:16:14.129Z,55.20
2023-05-05T05:18:41.021Z,56.21
2023-05-05T05:21:07.849Z,56.64
2023-05-05T05:23:34.744Z,55.78
2023-05-05T05:26:01.650Z,54.96
2023-05-05T05:28:28.470Z,53.10
2023-05-05T05:30:55.198Z,54.37
2023-05-05T05:33:22.054Z,54.07
2023-05-05T05:35:48.765Z,53.38
2023-05-05T05:38:22.016Z,52.71
2023-05-05T05:41:10.565Z,53.17
2023-05-05T05:43:51.804Z,53.95
2023-05-05T05:46:18.600Z,53.70
2023-05-05T05:48:45.563Z,53.22
2023-05-05T05:51:26.967Z,54.50
2023-05-05T05:53:53.723Z,54.29
2023-05-05T05:56:24.557Z,54.60
2023-05-05T05:58:51.560Z,54.24
2023-05-05T06:01:19.287Z,54.74
2023-05-05T06:03:46.398Z,53.78
2023-05-05T06:06:13.090Z,53.79
2023-05-05T06:08:42.774Z,52.75
2023-05-05T06:11:10.837Z,52.40
2023-05-05T06:13:40.545Z,52.96
2023-05-05T06:16:07.843Z,53.05
2023-05-05T06:18:34.597Z,52.60
2023-05-05T06:21:01.341Z,52.20
2023-05-05T06:23:28.514Z,52.40
2023-05-05T06:26:09.421Z,52.61
2023-05-05T06:28:36.260Z,52.39
2023-05-05T06:31:05.923Z,51.94
2023-05-05T06:33:40.089Z,51.42
2023-05-05T06:36:07.079Z,50.67
2023-05-05T06:38:42.587Z,49.87
2023-05-05T06:41:09.257Z,50.02
2023-05-05T06:43:36.113Z,50.36
2023-05-05T06:46:04.475Z,50.64
2023-05-05T06:48:32.218Z,50.16
2023-05-05T06:50:58.834Z,48.80
2023-05-05T06:53:25.530Z,50.22
2023-05-05T06:55:52.333Z,50.53
2023-05-05T06:58:19.137Z,49.63
2023-05-05T07:00:48.721Z,48.74
2023-05-05T07:03:15.597Z,49.57
2023-05-05T07:05:52.865Z,49.32
2023-05-05T07:08:22.608Z,50.92
2023-05-05T07:10:50.526Z,50.21
2023-05-05T07:13:17.550Z,49.56
2023-05-05T07:15:47.741Z,50.06
2023-05-05T07:18:17.862Z,49.70
2023-05-05T07:20:44.830Z,49.72
2023-05-05T07:23:11.481Z,49.03
2023-05-05T07:25:38.246Z,49.38
2023-05-05T07:28:05.353Z,49.51
2023-05-05T07:30:31.960Z,49.45
2023-05-05T07:32:58.657Z,47.99
2023-05-05T07:35:25.326Z,48.55
2023-05-05T07:37:52.230Z,47.81
2023-05-05T07:40:26.254Z,47.43
2023-05-05T07:42:56.205Z,47.03
2023-05-05T07:45:23.038Z,47.48
2023-05-05T07:48:16.696Z,47.53
2023-05-05T07:51:02.517Z,46.60
2023-05-05T07:53:42.295Z,47.39
2023-05-05T07:56:34.585Z,47.11
2023-05-05T07:59:03.997Z,46.39
2023-05-05T08:01:30.697Z,47.65
2023-05-05T08:03:57.457Z,47.20
2023-05-05T08:06:26.636Z,47.35
2023-05-05T08:08:53.925Z,47.46
2023-05-05T08:11:21.060Z,47.21
2023-05-05T08:13:48.122Z,47.22
2023-05-05T08:16:16.352Z,47.66
2023-05-05T08:18:44.239Z,46.19
2023-05-05T08:21:12.738Z,45.41
2023-05-05T08:23:39.976Z,45.72
2023-05-05T08:26:07.021Z,44.62
2023-05-05T08:28:34.728Z,44.27
2023-05-05T08:31:01.423Z,44.77
2023-05-05T08:33:29.535Z,44.42
2023-05-05T08:35:56.518Z,45.17
2023-05-05T08:38:23.274Z,45.38
2023-05-05T08:40:51.493Z,44.88
2023-05-05T08:43:18.663Z,45.89
2023-05-05T08:45:46.081Z,44.46
2023-05-05T08:48:13.156Z,44.49
2023-05-05T08:50:42.662Z,44.67
2023-05-05T08:53:26.902Z,45.83
2023-05-05T08:55:59.635Z,43.70
2023-05-05T08:58:28.836Z,44.07
2023-05-05T09:00:56.643Z,43.23
2023-05-05T09:03:25.251Z,44.11
2023-05-05T09:05:52.828Z,43.75
2023-05-05T09:08:20.224Z,42.69
2023-05-05T09:10:48.007Z,43.04
2023-05-05T09:13:15.108Z,44.07
2023-05-05T09:15:41.907Z,42.46
2023-05-05T09:18:08.630Z,41.69
2023-05-05T09:20:39.658Z,41.50
2023-05-05T09:23:14.560Z,41.96
2023-05-05T09:25:43.269Z,40.78
2023-05-05T09:28:16.679Z,40.40
2023-05-05T09:30:47.498Z,38.61
2023-05-05T09:33:14.290Z,39.79
2023-05-05T09:35:52.398Z,38.91
2023-05-05T09:38:20.231Z,37.99
2023-05-05T09:40:51.333Z,38.39
2023-05-05T09:43:19.793Z,37.94
2023-05-05T09:45:47.260Z,37.96
2023-05-05T09:48:43.566Z,37.24
2023-05-05T09:51:11.249Z,37.21
2023-05-05T09:53:41.993Z,37.98
2023-05-05T09:56:09.096Z,37.67
2023-05-05T09:58:35.986Z,37.44
2023-05-05T10:01:02.826Z,37.97
2023-05-05T10:03:32.805Z,38.15
2023-05-05T10:06:06.406Z,38.26
2023-05-05T10:08:46.887Z,39.20
2023-05-05T10:11:16.751Z,38.74
2023-05-05T10:13:45.225Z,38.33
2023-05-05T10:16:24.522Z,38.53
2023-05-05T10:18:51.992Z,39.40
2023-05-05T10:21:21.248Z,39.16
2023-05-05T10:24:17.905Z,38.73
2023-05-05T10:26:48.751Z,39.06
2023-05-05T10:29:54.593Z,38.78
2023-05-05T10:35:05.070Z,38.65
2023-05-05T10:37:32.690Z,38.24
2023-05-05T10:40:03.730Z,38.13
2023-05-05T10:42:30.567Z,38.20
2023-05-05T10:44:59.019Z,38.66
2023-05-05T10:47:28.065Z,38.82
2023-05-05T10:50:16.306Z,39.15
2023-05-05T10:52:48.561Z,39.17
2023-05-05T10:55:35.648Z,37.67
2023-05-05T10:58:02.401Z,37.04
2023-05-05T11:00:38.271Z,37.79
2023-05-05T11:03:17.371Z,38.01
2023-05-05T11:06:09.175Z,38.09
2023-05-05T11:08:43.701Z,39.98
2023-05-05T11:11:12.089Z,40.36
2023-05-05T11:13:40.108Z,40.79
2023-05-05T11:16:41.631Z,40.69
2023-05-05T11:19:43.606Z,40.50
2023-05-05T11:22:10.680Z,40.64
2023-05-05T11:24:37.889Z,41.32
2023-05-05T11:27:07.215Z,40.99
2023-05-05T11:30:15.132Z,39.36
2023-05-05T11:32:41.849Z,40.24
2023-05-05T11:35:10.440Z,40.08
2023-05-05T11:37:41.042Z,39.51
2023-05-05T11:40:20.110Z,38.89
2023-05-05T11:42:47.037Z,40.51
2023-05-05T11:45:24.082Z,38.98
2023-05-05T11:48:26.488Z,38.94
2023-05-05T11:51:00.311Z,38.78
2023-05-05T11:53:30.947Z,38.54
2023-05-05T11:56:08.628Z,38.98
2023-05-05T11:58:38.438Z,39.22
2023-05-05T12:01:11.847Z,38.53
2023-05-05T12:03:42.565Z,38.17
2023-05-05T12:06:20.593Z,38.38
2023-05-05T12:09:00.147Z,37.40
2023-05-05T12:11:27.117Z,37.49
2023-05-05T12:14:12.183Z,37.21
2023-05-05T12:16:39.219Z,37.99
2023-05-05T12:19:08.181Z,37.85
2023-05-05T12:21:38.954Z,37.69
2023-05-05T12:24:07.588Z,37.12
2023-05-05T12:26:35.382Z,37.79
2023-05-05T12:29:02.424Z,37.87
2023-05-05T12:31:35.300Z,37.70
2023-05-05T12:34:03.745Z,37.57
2023-05-05T12:36:32.475Z,38.01
2023-05-05T12:39:02.678Z,37.91
2023-05-05T12:41:32.147Z,37.61
2023-05-05T12:44:02.458Z,38.68
2023-05-05T12:46:29.864Z,37.67
2023-05-05T12:49:22.414Z,37.41
2023-05-05T12:51:56.830Z,37.83
2023-05-05T12:54:24.929Z,39.01
2023-05-05T12:56:57.587Z,39.71
2023-05-05T12:59:26.402Z,39.25
2023-05-05T13:01:55.203Z,39.21
2023-05-05T13:04:23.892Z,38.17
2023-05-05T13:07:09.227Z,38.23
2023-05-05T13:09:38.897Z,38.81
2023-05-05T13:12:08.180Z,38.13
2023-05-05T13:14:35.476Z,38.56
2023-05-05T13:17:04.290Z,38.96
2023-05-05T13:22:30.926Z,38.74
2023-05-05T13:25:02.904Z,39.25
2023-05-05T13:27:32.674Z,38.82
2023-05-05T13:29:59.337Z,39.27
2023-05-05T13:32:25.996Z,39.02
2023-05-05T13:34:54.024Z,39.06
2023-05-05T13:37:20.881Z,38.89
2023-05-05T13:39:48.620Z,39.13
2023-05-05T13:42:15.467Z,38.65
2023-05-05T13:44:42.110Z,40.08
2023-05-05T13:47:08.804Z,39.70
2023-05-05T13:49:35.932Z,39.15
2023-05-05T13:52:05.448Z,38.51
2023-05-05T13:54:32.308Z,38.91
2023-05-05T13:56:59.042Z,38.81
2023-05-05T13:59:31.298Z,39.11
2023-05-05T14:01:57.999Z,39.53
2023-05-05T14:04:24.916Z,38.33
2023-05-05T14:06:51.797Z,38.88
2023-05-05T14:09:18.643Z,39.93
2023-05-05T14:11:45.340Z,38.80
2023-05-05T14:14:12.191Z,39.00
2023-05-05T14:16:38.973Z,38.29
2023-05-05T14:19:05.649Z,38.82
2023-05-05T14:21:33.808Z,38.31
2023-05-05T14:24:00.529Z,38.30
2023-05-05T14:26:27.159Z,38.31
2023-05-05T14:28:53.823Z,38.58
2023-05-05T14:31:20.499Z,39.21
2023-05-05T14:33:50.057Z,38.57
2023-05-05T14:36:16.690Z,38.20
2023-05-05T14:38:43.515Z,38.47
2023-05-05T14:41:10.749Z,38.14
2023-05-05T14:43:39.254Z,38.69
2023-05-05T14:46:06.832Z,38.35
2023-05-05T14:48:34.716Z,38.72
2023-05-05T14:51:04.402Z,37.92
2023-05-05T14:53:31.133Z,38.74
2023-05-05T14:55:57.898Z,38.94
2023-05-05T14:58:24.647Z,39.18
2023-05-05T15:00:51.439Z,38.75
2023-05-05T15:03:18.468Z,38.96
2023-05-05T15:05:45.300Z,39.10
2023-05-05T15:08:12.139Z,39.58
2023-05-05T15:10:38.823Z,40.09
2023-05-05T15:13:05.594Z,40.73
2023-05-05T15:15:34.956Z,40.58
2023-05-05T15:18:01.769Z,40.57
2023-05-05T15:20:28.503Z,40.91
2023-05-05T15:22:55.266Z,39.97
2023-05-05T15:25:22.388Z,40.15
2023-05-05T15:27:51.713Z,40.18
2023-05-05T15:30:18.365Z,40.14
2023-05-05T15:32:45.265Z,40.26
2023-05-05T15:35:13.961Z,39.90
2023-05-05T15:37:40.654Z,40.37
2023-05-05T15:40:07.903Z,40.38
2023-05-05T15:42:34.736Z,40.63
2023-05-05T15:45:01.874Z,40.61
2023-05-05T15:47:28.680Z,40.57
2023-05-05T15:49:55.415Z,40.31
2023-05-05T15:52:24.684Z,40.64
2023-05-05T15:54:51.299Z,40.89
2023-05-05T15:57:17.973Z,41.67
2023-05-05T16:02:29.699Z,41.75
2023-05-05T16:05:00.624Z,42.24
2023-05-05T16:07:27.260Z,41.44
2023-05-05T16:09:54.067Z,41.60
2023-05-05T16:12:23.391Z,42.26
2023-05-05T16:14:50.130Z,41.77
2023-05-05T16:17:20.370Z,41.52
2023-05-05T16:19:50.766Z,40.67
2023-05-05T16:22:17.613Z,41.12
2023-05-05T16:24:46.934Z,41.22
2023-05-05T16:27:13.637Z,41.14
2023-05-05T16:29:40.460Z,41.43
2023-05-05T16:32:07.297Z,40.77
2023-05-05T16:34:35.882Z,41.18
2023-05-05T16:37:02.529Z,41.31
2023-05-05T16:39:29.149Z,40.65
2023-05-05T16:42:03.022Z,40.62
2023-05-05T16:44:29.634Z,40.31
2023-05-05T16:46:56.479Z,41.03
2023-05-05T16:49:23.068Z,40.74
2023-05-05T16:51:51.079Z,40.98
2023-05-05T16:54:17.831Z,41.44
2023-05-05T16:56:44.740Z,41.34
2023-05-05T16:59:14.453Z,40.97
2023-05-05T17:01:41.123Z,41.43
2023-05-05T17:04:07.798Z,42.37
2023-05-05T17:06:34.590Z,42.71
2023-05-05T17:09:04.383Z,42.69
2023-05-05T17:11:31.155Z,42.54
2023-05-05T17:14:00.958Z,42.90
2023-05-05T17:16:27.702Z,43.24
2023-05-05T17:18:54.417Z,43.37
2023-05-05T17:21:21.133Z,43.09
2023-05-05T17:23:47.790Z,43.58
2023-05-05T17:26:14.534Z,43.68
2023-05-05T17:28:41.401Z,44.46
2023-05-05T17:31:07.985Z,44.01
2023-05-05T17:33:34.741Z,44.61
2023-05-05T17:36:01.594Z,44.61
2023-05-05T17:38:28.285Z,44.72
2023-05-05T17:40:54.907Z,45.06
2023-05-05T17:43:21.543Z,46.20
2023-05-05T17:45:48.316Z,46.41
2023-05-05T17:48:15.125Z,46.71
2023-05-05T17:50:43.382Z,48.44
2023-05-05T17:53:10.229Z,48.53
2023-05-05T17:55:36.860Z,48.83
2023-05-05T17:58:03.502Z,48.95
2023-05-05T18:00:30.267Z,48.52
2023-05-05T18:02:56.957Z,49.51
2023-05-05T18:05:23.853Z,49.18
2023-05-05T18:07:50.487Z,50.00
2023-05-05T18:10:17.342Z,50.04
2023-05-05T18:12:44.186Z,50.18
2023-05-05T18:15:12.043Z,50.99
2023-05-05T18:17:39.068Z,50.97
2023-05-05T18:20:06.902Z,50.78
2023-05-05T18:22:34.228Z,51.10
2023-05-05T18:25:00.982Z,53.11
2023-05-05T18:27:29.945Z,52.73
2023-05-05T18:29:56.989Z,52.48
2023-05-05T18:32:23.854Z,51.90
2023-05-05T18:34:50.571Z,52.29
2023-05-05T18:37:17.213Z,52.51
2023-05-05T18:39:44.129Z,53.13
2023-05-05T18:42:10.957Z,53.06
2023-05-05T18:44:37.798Z,53.37
2023-05-05T18:47:04.805Z,54.01
2023-05-05T18:49:31.789Z,53.84
2023-05-05T18:51:58.425Z,53.88
2023-05-05T18:54:25.187Z,53.90
2023-05-05T18:56:51.870Z,54.36
2023-05-05T18:59:18.667Z,55.49
2023-05-05T19:01:45.534Z,56.16
2023-05-05T19:04:22.835Z,56.66
2023-05-05T19:06:56.527Z,55.18
2023-05-05T19:09:23.149Z,54.72
2023-05-05T19:11:49.914Z,54.97
2023-05-05T19:14:16.651Z,55.84
2023-05-05T19:16:43.346Z,57.24
2023-05-05T19:19:10.000Z,56.14
2023-05-05T19:21:36.710Z,56.55
2023-05-05T19:24:05.499Z,56.68
2023-05-05T19:26:32.215Z,57.11
2023-05-05T19:28:59.642Z,58.34
2023-05-05T19:31:26.377Z,57.68
2023-05-05T19:33:57.575Z,59.40
2023-05-05T19:36:24.438Z,59.30
2023-05-05T19:38:51.165Z,58.43
2023-05-05T19:41:17.828Z,58.51
2023-05-05T19:43:44.544Z,58.94
2023-05-05T19:46:11.288Z,59.93
2023-05-05T19:48:38.186Z,59.29
2023-05-05T19:51:04.997Z,59.46
2023-05-05T19:53:34.636Z,59.51
2023-05-05T19:56:01.307Z,59.76
2023-05-05T19:58:27.882Z,59.55
2023-05-05T20:00:54.538Z,58.96
2023-05-05T20:03:21.290Z,60.02
2023-05-05T20:05:48.358Z,60.15
2023-05-05T20:08:14.970Z,59.90
2023-05-05T20:10:41.637Z,60.15
2023-05-05T20:13:08.378Z,60.46
2023-05-05T20:15:37.827Z,61.90
2023-05-05T20:18:04.600Z,62.31
2023-05-05T20:20:32.438Z,62.54
2023-05-05T20:22:59.253Z,61.21
2023-05-05T20:25:25.929Z,62.06
2023-05-05T20:27:52.589Z,61.24
2023-05-05T20:30:19.192Z,61.94
2023-05-05T20:32:45.832Z,61.46
2023-05-05T20:35:12.633Z,61.68
2023-05-05T20:37:39.307Z,61.80
2023-05-05T20:40:07.264Z,60.95
2023-05-05T20:42:34.124Z,61.14
2023-05-05T20:45:01.220Z,61.51
2023-05-05T20:47:28.020Z,62.00
2023-05-05T20:49:56.787Z,61.70
2023-05-05T20:52:23.430Z,61.95
2023-05-05T20:54:50.416Z,60.75
2023-05-05T20:57:17.038Z,61.24
2023-05-05T20:59:43.829Z,61.65
2023-05-05T21:02:10.622Z,62.14
2023-05-05T21:04:39.421Z,60.87
2023-05-05T21:07:06.034Z,61.13
2023-05-05T21:09:32.766Z,60.66
2023-05-05T21:11:59.518Z,61.24
2023-05-05T21:14:26.147Z,61.99
2023-05-05T21:16:52.974Z,61.07
2023-05-05T21:19:19.635Z,62.33
2023-05-05T21:21:46.434Z,62.27
2023-05-05T21:24:13.529Z,62.46
2023-05-05T21:26:44.580Z,61.46
2023-05-05T21:29:11.510Z,62.64
2023-05-05T21:31:41.235Z,62.29
2023-05-05T21:34:07.869Z,63.46
2023-05-05T21:36:34.526Z,64.09
2023-05-05T21:39:01.165Z,63.35
2023-05-05T21:41:31.114Z,63.61
2023-05-05T21:43:58.203Z,63.79
2023-05-05T21:46:24.930Z,62.80
2023-05-05T21:48:51.613Z,62.63
2023-05-05T21:51:22.204Z,62.65
2023-05-05T21:53:49.308Z,64.72
2023-05-05T21:56:16.057Z,64.88
2023-05-05T21:58:42.641Z,65.95
2023-05-05T22:01:09.339Z,63.86
2023-05-05T22:03:36.070Z,64.22
2023-05-05T22:06:02.889Z,64.23
2023-05-05T22:08:29.516Z,64.02
2023-05-05T22:10:56.164Z,63.43
2023-05-05T22:13:22.916Z,64.39
2023-05-05T22:15:49.559Z,64.60
2023-05-05T22:18:16.300Z,65.15
2023-05-05T22:20:43.034Z,64.87
2023-05-05T22:23:09.818Z,64.96
2023-05-05T22:25:36.521Z,64.13
2023-05-05T22:28:03.394Z,64.34
2023-05-05T22:30:30.090Z,65.00
2023-05-05T22:32:56.974Z,64.24
2023-05-05T22:35:23.703Z,64.67
2023-05-05T22:37:50.504Z,63.71
2023-05-05T22:40:17.266Z,62.41
2023-05-05T22:42:44.179Z,60.20
2023-05-05T22:45:11.519Z,62.10
2023-05-05T22:47:38.590Z,61.34
2023-05-05T22:50:05.957Z,59.24
2023-05-05T22:52:35.474Z,59.00
2023-05-05T22:55:02.453Z,58.38
2023-05-05T22:57:34.380Z,58.65
2023-05-05T23:00:02.514Z,59.33
2023-05-05T23:02:32.504Z,58.83
2023-05-05T23:04:59.200Z,56.62
2023-05-05T23:07:25.788Z,56.44
2023-05-05T23:09:52.563Z,56.21
2023-05-05T23:12:19.359Z,55.29
2023-05-05T23:14:46.098Z,56.12
2023-05-05T23:17:12.746Z,56.36
2023-05-05T23:19:39.461Z,56.02
2023-05-05T23:22:06.184Z,56.60
2023-05-05T23:24:32.830Z,57.69
2023-05-05T23:27:01.250Z,56.25
2023-05-05T23:29:28.154Z,55.74
2023-05-05T23:31:58.166Z,55.22
2023-05-05T23:34:27.340Z,55.23
2023-05-05T23:36:54.021Z,56.51
2023-05-05T23:39:23.439Z,56.15
2023-05-05T23:41:50.147Z,55.75
2023-05-05T23:44:16.737Z,56.38
2023-05-05T23:46:46.364Z,56.62
2023-05-05T23:49:12.978Z,55.91
2023-05-05T23:51:40.769Z,56.96
2023-05-05T23:54:07.445Z,57.43
2023-05-05T23:56:34.176Z,56.98
2023-05-05T23:59:00.889Z,56.75
